createdAt,value
2023-10-15T07:05:22.368Z,99924.69
2023-10-15T07:05:38.182Z,99945.28
2023-10-15T07:05:55.743Z,99943.03
2023-10-15T07:06:10.339Z,99938.50
2023-10-15T07:06:27.225Z,99932.09
2023-10-15T07:06:43.425Z,99932.72
2023-10-15T07:06:56.553Z,99930.25
2023-10-15T07:07:09.345Z,99947.97
2023-10-15T07:07:21.860Z,99943.66
2023-10-15T07:07:34.303Z,99943.66
2023-10-15T07:07:47.908Z,99940.78
2023-10-15T07:08:00.696Z,99945.28
2023-10-15T07:08:16.523Z,99947.78
2023-10-15T07:08:31.796Z,99940.56
2023-10-15T07:08:44.894Z,99926.34
2023-10-15T07:08:58.225Z,99927.78
2023-10-15T07:09:13.033Z,99943.25
2023-10-15T07:09:30.040Z,99917.28
2023-10-15T07:09:46.110Z,99928.81
2023-10-15T07:10:02.694Z,99929.66
2023-10-15T07:10:15.934Z,99941.19
2023-10-15T07:10:31.064Z,99935.84
2023-10-15T07:10:44.005Z,99925.75
2023-10-15T07:11:00.417Z,99939.56
2023-10-15T07:11:15.742Z,99942.03
2023-10-15T07:11:28.032Z,99931.72
2023-10-15T07:11:41.906Z,99946.16
2023-10-15T07:11:57.219Z,99929.03
2023-10-15T07:12:16.588Z,99926.78
2023-10-15T07:12:29.573Z,99923.88
2023-10-15T07:12:41.905Z,99937.06
2023-10-15T07:12:54.848Z,99944.69
2023-10-15T07:13:08.380Z,99933.78
2023-10-15T07:13:22.096Z,99918.34
2023-10-15T07:13:48.001Z,99926.78
2023-10-15T07:14:05.269Z,99919.59
2023-10-15T07:14:18.179Z,99945.72
2023-10-15T07:14:31.568Z,99933.78
2023-10-15T07:14:45.120Z,99935.44
2023-10-15T07:14:57.885Z,99937.69
2023-10-15T07:15:11.878Z,99925.13
2023-10-15T07:15:26.947Z,99929.66
2023-10-15T07:15:43.164Z,99920.00
2023-10-15T07:15:58.171Z,99917.72
2023-10-15T07:16:15.494Z,99926.38
2023-10-15T07:16:28.878Z,99933.16
2023-10-15T07:16:43.566Z,99919.16
2023-10-15T07:16:59.519Z,99930.09
2023-10-15T07:17:17.912Z,99930.47
2023-10-15T07:17:30.975Z,99919.78
2023-10-15T07:17:51.192Z,99922.69
2023-10-15T07:18:15.195Z,99929.66
2023-10-15T07:22:05.436Z,99915.66
2023-10-15T07:22:18.828Z,99926.16
2023-10-15T07:22:31.288Z,99911.34
2023-10-15T07:22:46.831Z,99925.13
2023-10-15T07:23:01.818Z,99945.28
2023-10-15T07:23:14.409Z,99928.41
2023-10-15T07:23:26.847Z,99930.47
2023-10-15T07:23:42.214Z,99941.19
2023-10-15T07:23:55.309Z,99924.72
2023-10-15T07:24:09.276Z,99937.88
2023-10-15T07:24:21.836Z,99950.66
2023-10-15T07:24:34.288Z,99939.94
2023-10-15T07:24:49.188Z,99945.53
2023-10-15T07:25:01.259Z,99946.97
2023-10-15T07:25:17.172Z,99945.53
2023-10-15T07:25:30.114Z,99952.09
2023-10-15T07:25:45.367Z,99961.16
2023-10-15T07:26:10.227Z,99959.50
2023-10-15T07:26:31.766Z,99969.63
2023-10-15T07:26:44.011Z,99967.94
2023-10-15T07:26:56.355Z,99960.53
2023-10-15T07:27:08.875Z,99955.38
2023-10-15T07:27:22.041Z,99985.06
2023-10-15T07:27:34.941Z,99980.53
2023-10-15T07:27:49.104Z,99976.59
2023-10-15T07:28:02.157Z,99983.19
2023-10-15T07:28:17.409Z,99994.53
2023-10-15T07:28:30.312Z,99994.53
2023-10-15T07:28:46.079Z,99980.91
2023-10-15T07:28:59.608Z,100000.28
2023-10-15T07:29:11.972Z,99998.44
2023-10-15T07:29:25.213Z,100003.78
2023-10-15T07:29:38.043Z,99984.81
2023-10-15T07:29:50.657Z,100005.22
2023-10-15T07:30:04.233Z,100000.50
2023-10-15T07:30:22.209Z,100003.19
2023-10-15T07:30:36.266Z,100005.63
2023-10-15T07:30:51.110Z,100009.13
2023-10-15T07:31:06.294Z,99996.59
2023-10-15T07:31:23.255Z,100004.38
2023-10-15T07:31:37.522Z,99994.72
2023-10-15T07:31:50.859Z,100003.19
2023-10-15T07:32:06.467Z,99993.09
2023-10-15T07:32:19.807Z,100001.72
2023-10-15T07:32:35.662Z,100009.16
2023-10-15T07:32:53.131Z,100003.56
2023-10-15T07:33:08.650Z,100022.31
2023-10-15T07:33:30.337Z,100018.00
2023-10-15T07:33:47.514Z,100023.97
2023-10-15T07:34:05.305Z,100005.63
2023-10-15T07:34:20.069Z,100014.47
2023-10-15T07:34:33.688Z,100016.97
2023-10-15T07:34:49.333Z,100026.66
2023-10-15T07:35:02.690Z,100014.91
2023-10-15T07:35:16.586Z,100024.78
2023-10-15T07:35:30.191Z,100019.63
2023-10-15T07:35:45.142Z,100033.44
2023-10-15T07:35:58.167Z,100018.63
2023-10-15T07:36:10.599Z,100033.03
2023-10-15T07:36:25.921Z,100016.13
2023-10-15T07:36:38.810Z,100034.06
2023-10-15T07:36:51.213Z,100032.41
2023-10-15T07:37:04.919Z,100026.03
2023-10-15T07:37:17.075Z,100024.78
2023-10-15T07:37:32.795Z,100026.03
2023-10-15T07:38:17.931Z,100027.66
2023-10-15T07:38:31.920Z,100028.91
2023-10-15T07:38:44.719Z,100019.44
2023-10-15T07:38:56.900Z,100021.91
2023-10-15T07:39:10.935Z,100024.38
2023-10-15T07:39:23.941Z,100006.88
2023-10-15T07:39:35.986Z,100028.09
2023-10-15T07:39:48.036Z,100025.00
2023-10-15T07:40:00.050Z,100025.59
2023-10-15T07:40:14.718Z,100022.31
2023-10-15T07:40:29.238Z,100027.28
2023-10-15T07:40:42.457Z,100019.84
2023-10-15T07:40:57.132Z,100026.41
2023-10-15T07:41:10.257Z,100009.34
2023-10-15T07:41:22.797Z,100018.81
2023-10-15T07:41:35.214Z,100027.88
2023-10-15T07:41:47.238Z,100032.19
2023-10-15T07:41:59.263Z,100028.47
2023-10-15T07:42:11.158Z,100027.88
2023-10-15T07:42:23.444Z,100021.28
2023-10-15T07:42:35.428Z,100003.97
2023-10-15T07:42:49.205Z,100020.25
2023-10-15T07:43:01.527Z,100034.88
2023-10-15T07:43:14.416Z,100027.66
2023-10-15T07:43:34.705Z,100009.75
2023-10-15T07:43:47.117Z,100035.69
2023-10-15T07:43:59.281Z,100034.06
2023-10-15T07:44:12.649Z,100037.34
2023-10-15T07:44:25.107Z,100033.00
2023-10-15T07:44:37.430Z,100039.59
2023-10-15T07:44:49.980Z,100028.47
2023-10-15T07:45:02.133Z,100033.44
2023-10-15T07:45:14.695Z,100033.63
2023-10-15T07:45:28.837Z,100028.91
2023-10-15T07:45:41.169Z,100023.53
2023-10-15T07:45:53.361Z,100024.97
2023-10-15T07:46:05.531Z,100030.34
2023-10-15T07:46:17.913Z,100020.03
2023-10-15T07:46:31.068Z,100024.16
2023-10-15T07:46:43.825Z,100018.00
2023-10-15T07:46:56.491Z,100018.81
2023-10-15T07:47:09.988Z,100036.94
2023-10-15T07:47:23.396Z,100027.25
2023-10-15T07:47:37.314Z,100036.09
2023-10-15T07:47:58.075Z,100040.41
2023-10-15T07:48:10.942Z,100044.13
2023-10-15T07:48:24.983Z,100050.50
2023-10-15T07:48:42.848Z,100019.03
2023-10-15T07:49:10.550Z,100032.00
2023-10-15T07:49:24.776Z,100031.16
2023-10-15T07:49:37.739Z,100044.56
2023-10-15T07:49:54.293Z,100026.19
2023-10-15T07:50:12.357Z,100026.81
2023-10-15T07:50:25.567Z,100031.38
2023-10-15T07:50:38.942Z,100037.34
2023-10-15T07:50:53.490Z,100027.25
2023-10-15T07:51:06.275Z,100036.09
2023-10-15T07:51:23.040Z,100034.06
2023-10-15T07:51:36.483Z,100032.19
2023-10-15T07:51:51.360Z,100029.94
2023-10-15T07:52:08.425Z,100035.91
2023-10-15T07:52:20.995Z,100029.50
2023-10-15T07:52:33.933Z,100032.59
2023-10-15T07:52:47.445Z,100044.94
2023-10-15T07:53:00.960Z,100018.59
2023-10-15T07:53:14.280Z,100029.13
2023-10-15T07:53:27.314Z,100024.38
2023-10-15T07:53:40.599Z,100030.13
2023-10-15T07:53:55.575Z,100031.78
2023-10-15T07:54:09.291Z,100019.41
2023-10-15T07:54:25.903Z,100032.59
2023-10-15T07:54:39.049Z,100017.38
2023-10-15T07:54:52.698Z,100014.69
2023-10-15T07:55:06.736Z,100027.88
2023-10-15T07:55:26.667Z,100016.34
2023-10-15T07:55:44.093Z,100009.31
2023-10-15T07:56:09.991Z,100024.34
2023-10-15T07:56:27.206Z,100009.94
2023-10-15T07:56:51.177Z,100011.00
2023-10-15T07:57:29.343Z,100011.41
2023-10-15T07:57:41.220Z,100012.63
2023-10-15T07:57:53.613Z,100007.09
2023-10-15T07:58:06.298Z,100022.09
2023-10-15T07:58:20.691Z,100013.66
2023-10-15T07:58:35.946Z,100021.06
2023-10-15T07:58:51.770Z,100019.44
2023-10-15T07:59:07.966Z,100011.41
2023-10-15T07:59:22.184Z,100016.56
2023-10-15T07:59:36.014Z,100006.84
2023-10-15T07:59:53.217Z,99998.81
2023-10-15T08:00:08.083Z,100000.25
2023-10-15T08:00:24.867Z,100001.94
2023-10-15T08:00:37.137Z,100008.72
2023-10-15T08:01:05.278Z,100008.53
2023-10-15T08:01:23.348Z,99996.16
2023-10-15T08:01:39.148Z,99988.13
2023-10-15T08:01:54.303Z,99994.91
2023-10-15T08:02:11.926Z,99993.09
2023-10-15T08:02:56.799Z,99990.41
2023-10-15T08:03:10.270Z,99997.19
2023-10-15T08:03:23.708Z,99989.97
2023-10-15T08:03:44.793Z,99991.84
2023-10-15T08:04:18.477Z,99988.75
2023-10-15T08:04:37.192Z,99995.97
2023-10-15T08:05:41.843Z,99983.19
2023-10-15T08:06:01.376Z,99986.69
2023-10-15T08:06:16.775Z,99978.66
2023-10-15T08:07:04.522Z,99987.31
2023-10-15T08:07:26.189Z,99999.03
2023-10-15T08:07:40.046Z,99996.34
2023-10-15T08:07:55.717Z,99992.25
2023-10-15T08:08:10.876Z,100004.38
2023-10-15T08:08:23.731Z,100010.34
2023-10-15T08:09:03.901Z,99991.00
2023-10-15T08:09:16.924Z,100011.41
2023-10-15T08:10:58.254Z,100004.81
2023-10-15T08:11:11.733Z,100005.63
2023-10-15T08:11:25.730Z,100001.09
2023-10-15T08:11:40.157Z,100001.94
2023-10-15T08:11:53.232Z,99999.03
2023-10-15T08:12:06.479Z,99993.09
2023-10-15T08:12:29.096Z,100010.97
2023-10-15T08:12:44.792Z,99998.41
2023-10-15T08:12:58.618Z,99998.00
2023-10-15T08:13:11.060Z,99991.00
2023-10-15T08:13:25.371Z,100002.56
2023-10-15T08:13:40.884Z,100005.44
2023-10-15T08:13:53.854Z,99999.88
2023-10-15T08:14:14.156Z,99995.13
2023-10-15T08:14:27.412Z,99998.84
2023-10-15T08:14:40.752Z,99993.69
2023-10-15T08:14:54.719Z,100001.09
2023-10-15T08:15:10.050Z,100004.38
2023-10-15T08:15:22.815Z,99991.22
2023-10-15T08:15:35.885Z,99997.19
2023-10-15T08:15:49.516Z,99994.72
2023-10-15T08:16:02.568Z,99972.69
2023-10-15T08:16:15.203Z,99990.19
2023-10-15T08:16:28.210Z,99989.38
2023-10-15T08:16:41.597Z,99968.75
2023-10-15T08:16:54.125Z,99983.19
2023-10-15T08:17:07.236Z,99984.63
2023-10-15T08:17:21.032Z,99982.97
2023-10-15T08:17:34.211Z,99972.06
2023-10-15T08:17:48.158Z,99977.59
2023-10-15T08:18:04.501Z,99967.31
2023-10-15T08:18:18.201Z,99968.97
2023-10-15T08:18:44.830Z,99975.56
2023-10-15T08:19:00.430Z,99965.47
2023-10-15T08:19:14.006Z,99965.28
2023-10-15T08:19:26.868Z,99963.22
2023-10-15T08:19:40.642Z,99979.03
2023-10-15T08:19:54.895Z,99956.63
2023-10-15T08:20:09.828Z,99980.72
2023-10-15T08:20:23.035Z,99975.34
2023-10-15T08:20:37.631Z,99982.56
2023-10-15T08:20:52.673Z,99992.22
2023-10-15T08:21:06.523Z,99977.84
2023-10-15T08:21:20.307Z,99982.56
2023-10-15T08:21:35.066Z,100001.31
2023-10-15T08:21:51.355Z,100004.63
2023-10-15T08:22:12.871Z,100002.53
2023-10-15T08:22:37.466Z,100000.88
2023-10-15T08:22:53.324Z,99995.53
2023-10-15T08:23:15.183Z,100010.34
2023-10-15T08:23:56.915Z,99995.13
2023-10-15T08:24:12.468Z,100010.78
2023-10-15T08:24:25.420Z,100008.91
2023-10-15T08:24:38.155Z,100007.06
2023-10-15T08:24:50.951Z,100012.41
2023-10-15T08:25:03.607Z,99998.41
2023-10-15T08:25:16.740Z,100009.13
2023-10-15T08:25:31.607Z,100006.66
2023-10-15T08:25:44.368Z,99997.81
2023-10-15T08:25:56.556Z,100003.38
2023-10-15T08:26:09.256Z,99993.47
2023-10-15T08:26:21.540Z,100011.59
2023-10-15T08:26:34.598Z,100007.06
2023-10-15T08:26:47.084Z,99998.63
2023-10-15T08:27:01.015Z,99992.03
2023-10-15T08:27:13.951Z,99997.78
2023-10-15T08:27:27.243Z,99991.81
2023-10-15T08:27:39.782Z,99998.22
2023-10-15T08:27:52.169Z,99999.03
2023-10-15T08:28:05.664Z,99987.31
2023-10-15T08:28:20.241Z,99986.44
2023-10-15T08:28:38.059Z,99993.47
2023-10-15T08:28:50.576Z,99989.97
2023-10-15T08:29:03.112Z,99993.47
2023-10-15T08:29:18.502Z,99992.44
2023-10-15T08:29:33.688Z,99989.53
2023-10-15T08:29:55.517Z,99996.34
2023-10-15T08:30:10.763Z,99989.75
2023-10-15T08:30:23.426Z,99988.09
2023-10-15T08:30:38.028Z,99986.06
2023-10-15T08:30:52.783Z,99985.44
2023-10-15T08:31:05.668Z,99986.06
2023-10-15T08:31:19.931Z,99989.13
2023-10-15T08:32:03.647Z,99996.53
2023-10-15T08:32:15.790Z,99997.97
2023-10-15T08:32:28.456Z,99990.78
2023-10-15T08:32:41.366Z,99996.34
2023-10-15T08:32:53.489Z,99987.25
2023-10-15T08:33:06.659Z,99981.88
2023-10-15T08:33:18.841Z,99991.78
2023-10-15T08:33:31.043Z,99988.91
2023-10-15T08:33:46.763Z,99989.72
2023-10-15T08:34:01.275Z,99985.63
2023-10-15T08:34:13.284Z,99987.47
2023-10-15T08:34:25.730Z,99990.16
2023-10-15T08:34:38.141Z,99981.94
2023-10-15T08:34:50.878Z,99987.88
2023-10-15T08:35:03.807Z,99998.59
2023-10-15T08:35:17.339Z,99991.38
2023-10-15T08:35:29.645Z,99979.63
2023-10-15T08:35:41.872Z,99986.25
2023-10-15T08:35:54.367Z,99973.91
2023-10-15T08:36:07.213Z,99987.88
2023-10-15T08:36:19.491Z,99985.00
2023-10-15T08:36:32.094Z,99986.22
2023-10-15T08:36:44.219Z,99990.16
2023-10-15T08:36:56.303Z,99980.06
2023-10-15T08:37:08.636Z,99986.66
2023-10-15T08:37:20.987Z,99992.59
2023-10-15T08:37:35.019Z,99984.19
2023-10-15T08:37:47.817Z,99984.00
2023-10-15T08:38:00.081Z,99989.34
2023-10-15T08:38:12.290Z,99981.31
2023-10-15T08:38:24.619Z,99990.16
2023-10-15T08:38:36.917Z,99985.00
2023-10-15T08:38:49.567Z,99980.06
2023-10-15T08:39:12.701Z,99986.03
2023-10-15T08:39:37.791Z,99984.19
2023-10-15T08:39:52.950Z,99988.09
2023-10-15T08:40:10.059Z,99974.28
2023-10-15T08:40:28.440Z,99980.88
2023-10-15T08:40:41.732Z,99974.91
2023-10-15T08:40:57.991Z,99987.88
2023-10-15T08:41:13.647Z,99983.56
2023-10-15T08:41:29.368Z,99975.09
2023-10-15T08:41:44.935Z,99988.91
2023-10-15T08:41:59.966Z,99984.19
2023-10-15T08:42:15.370Z,99974.53
2023-10-15T08:42:32.342Z,99993.22
2023-10-15T08:42:59.624Z,99987.28
2023-10-15T08:43:20.671Z,99989.13
2023-10-15T08:43:33.468Z,99986.66
2023-10-15T08:43:47.304Z,99983.78
2023-10-15T08:44:00.386Z,99980.69
2023-10-15T08:44:16.397Z,99990.59
2023-10-15T08:44:30.190Z,99973.91
2023-10-15T08:44:44.837Z,99991.41
2023-10-15T08:45:00.363Z,99992.03
2023-10-15T08:45:13.919Z,99979.66
2023-10-15T08:45:27.445Z,99994.28
2023-10-15T08:45:40.754Z,99987.28
2023-10-15T08:45:55.046Z,99976.78
2023-10-15T08:46:09.003Z,99990.16
2023-10-15T08:46:23.185Z,100003.13
2023-10-15T08:46:40.227Z,99988.94
2023-10-15T08:46:55.409Z,99984.19
2023-10-15T08:47:11.540Z,99995.09
2023-10-15T08:47:26.517Z,99995.09
2023-10-15T08:47:40.806Z,99994.47
2023-10-15T08:47:55.512Z,99984.81
2023-10-15T08:48:12.226Z,99989.97
2023-10-15T08:48:26.003Z,99995.72
2023-10-15T08:48:43.486Z,99995.34
2023-10-15T08:48:57.196Z,99994.28
2023-10-15T08:49:09.852Z,100000.47
2023-10-15T08:49:28.998Z,99994.28
2023-10-15T08:49:50.697Z,99984.00
2023-10-15T08:50:04.362Z,99998.63
2023-10-15T08:50:18.079Z,99992.84
2023-10-15T08:50:31.983Z,99986.88
2023-10-15T08:50:48.929Z,99996.34
2023-10-15T08:51:03.389Z,99991.81
2023-10-15T08:51:17.922Z,99976.59
2023-10-15T08:51:30.960Z,99985.44
2023-10-15T08:51:44.896Z,100006.03
2023-10-15T08:52:03.314Z,99990.59
2023-10-15T08:52:19.363Z,99998.63
2023-10-15T08:52:33.132Z,99989.75
2023-10-15T08:52:49.643Z,99992.66
2023-10-15T08:53:02.494Z,99995.94
2023-10-15T08:53:15.564Z,99986.06
2023-10-15T08:53:29.612Z,100004.81
2023-10-15T08:53:44.280Z,99998.22
2023-10-15T08:54:00.662Z,99979.03
2023-10-15T08:54:15.319Z,99995.94
2023-10-15T08:54:29.363Z,99992.22
2023-10-15T08:54:50.048Z,100001.88
2023-10-15T08:55:02.660Z,100001.69
2023-10-15T08:55:15.954Z,99984.41
2023-10-15T08:55:28.861Z,99996.56
2023-10-15T08:55:43.347Z,99996.78
2023-10-15T08:55:56.423Z,100003.75
2023-10-15T08:56:10.958Z,99992.03
2023-10-15T08:56:23.527Z,99988.53
2023-10-15T08:56:39.723Z,100005.41
2023-10-15T08:56:53.967Z,100007.06
2023-10-15T08:57:07.871Z,99991.81
2023-10-15T08:57:20.969Z,99992.44
2023-10-15T08:57:33.043Z,99996.97
2023-10-15T08:57:46.574Z,99996.16
2023-10-15T08:58:04.981Z,99988.72
2023-10-15T08:58:21.790Z,99993.03
2023-10-15T08:58:35.938Z,99985.22
2023-10-15T08:58:51.693Z,100003.13
2023-10-15T08:59:04.366Z,100013.22
2023-10-15T08:59:17.634Z,99989.75
2023-10-15T08:59:31.738Z,99999.44
2023-10-15T08:59:45.144Z,100002.50
2023-10-15T08:59:59.550Z,100005.81
2023-10-15T09:00:24.778Z,100006.22
2023-10-15T09:00:43.549Z,100013.00
2023-10-15T09:00:56.660Z,100007.66
2023-10-15T09:01:10.654Z,99995.09
2023-10-15T09:01:24.236Z,100002.09
2023-10-15T09:01:38.634Z,100009.72
2023-10-15T09:01:52.679Z,100009.09
2023-10-15T09:02:06.678Z,100016.31
2023-10-15T09:02:21.421Z,100011.78
2023-10-15T09:02:34.894Z,100007.84
2023-10-15T09:02:48.422Z,100008.69
2023-10-15T09:03:05.627Z,100001.06
2023-10-15T09:03:20.058Z,100009.28
2023-10-15T09:03:32.809Z,100008.91
2023-10-15T09:03:45.825Z,100014.88
2023-10-15T09:03:59.934Z,100001.06
2023-10-15T09:04:13.812Z,100002.31
2023-10-15T09:04:26.592Z,100006.84
2023-10-15T09:04:38.828Z,100009.09
2023-10-15T09:04:51.355Z,99997.78
2023-10-15T09:05:04.144Z,100013.22
2023-10-15T09:05:16.664Z,100027.66
2023-10-15T09:05:29.701Z,100021.03
2023-10-15T09:05:42.364Z,100006.22
2023-10-15T09:05:56.033Z,100005.19
2023-10-15T09:06:08.714Z,100013.41
2023-10-15T09:06:21.459Z,100007.84
2023-10-15T09:06:35.232Z,100006.63
2023-10-15T09:06:48.804Z,100016.31
2023-10-15T09:07:01.837Z,100007.03
2023-10-15T09:07:15.183Z,99996.13
2023-10-15T09:07:28.226Z,99989.72
2023-10-15T09:07:40.740Z,99997.78
2023-10-15T09:07:54.966Z,99990.56
2023-10-15T09:08:09.082Z,100011.78
2023-10-15T09:08:22.304Z,100004.56
2023-10-15T09:08:34.740Z,100006.00
2023-10-15T09:08:47.452Z,99998.59
2023-10-15T09:08:59.711Z,99999.22
2023-10-15T09:09:11.797Z,100005.81
2023-10-15T09:09:23.841Z,99996.75
2023-10-15T09:09:36.179Z,100004.38
2023-10-15T09:09:49.725Z,100007.66
2023-10-15T09:10:02.317Z,99995.91
2023-10-15T09:10:15.944Z,100006.22
2023-10-15T09:10:28.216Z,100004.16
2023-10-15T09:10:41.931Z,99994.91
2023-10-15T09:10:55.406Z,99990.97
2023-10-15T09:11:07.707Z,100003.94
2023-10-15T09:11:19.959Z,99999.22
2023-10-15T09:11:32.173Z,100000.25
2023-10-15T09:11:45.017Z,99995.50
2023-10-15T09:11:58.295Z,99998.38
2023-10-15T09:12:12.015Z,100001.69
2023-10-15T09:12:24.342Z,99997.97
2023-10-15T09:12:36.770Z,100010.34
2023-10-15T09:12:49.170Z,100000.06
2023-10-15T09:13:01.314Z,99998.38
2023-10-15T09:13:14.464Z,100002.09
2023-10-15T09:13:26.718Z,99998.38
2023-10-15T09:13:39.252Z,100006.63
2023-10-15T09:13:52.646Z,100006.63
2023-10-15T09:14:05.128Z,99999.81
2023-10-15T09:14:17.527Z,99993.22
2023-10-15T09:14:39.586Z,99996.13
2023-10-15T09:14:52.296Z,99991.38
2023-10-15T09:15:09.215Z,100003.53
2023-10-15T09:15:21.465Z,99985.44
2023-10-15T09:15:40.149Z,100002.50
2023-10-15T09:15:54.165Z,99993.44
2023-10-15T09:16:07.904Z,99998.78
2023-10-15T09:16:22.400Z,99989.72
2023-10-15T09:16:36.578Z,99996.13
2023-10-15T09:16:49.329Z,100004.34
2023-10-15T09:17:01.781Z,99996.53
2023-10-15T09:17:16.409Z,99999.19
2023-10-15T09:17:29.155Z,99981.69
2023-10-15T09:17:41.856Z,100000.00
2023-10-15T09:17:56.930Z,99990.16
2023-10-15T09:18:09.431Z,99995.50
2023-10-15T09:18:22.188Z,99996.75
2023-10-15T09:18:35.591Z,99998.59
2023-10-15T09:18:48.728Z,100000.44
2023-10-15T09:19:01.607Z,99994.88
2023-10-15T09:19:13.994Z,99986.84
2023-10-15T09:19:26.873Z,99995.09
2023-10-15T09:19:40.397Z,99984.19
2023-10-15T09:19:57.344Z,99984.81
2023-10-15T09:20:14.300Z,99992.59
2023-10-15T09:20:28.880Z,99990.78
2023-10-15T09:20:43.957Z,99991.59
2023-10-15T09:20:59.253Z,99969.56
2023-10-15T09:21:12.104Z,99982.75
2023-10-15T09:21:25.809Z,99978.81
2023-10-15T09:21:38.560Z,99972.66
2023-10-15T09:21:50.591Z,99977.38
2023-10-15T09:22:02.805Z,99978.19
2023-10-15T09:22:15.861Z,99984.38
2023-10-15T09:22:30.375Z,99977.38
2023-10-15T09:22:46.253Z,99976.53
2023-10-15T09:23:09.314Z,99968.53
2023-10-15T09:23:33.869Z,99976.16
2023-10-15T09:23:47.007Z,99963.38
2023-10-15T09:24:00.341Z,99978.19
2023-10-15T09:24:13.272Z,99974.91
2023-10-15T09:24:27.879Z,99971.78
2023-10-15T09:24:47.156Z,99977.16
2023-10-15T09:25:00.424Z,99967.28
2023-10-15T09:25:13.325Z,99971.19
2023-10-15T09:25:33.578Z,99978.00
2023-10-15T09:25:46.680Z,99964.63
2023-10-15T09:25:59.343Z,99985.41
2023-10-15T09:26:25.860Z,99976.13
2023-10-15T09:26:39.562Z,99980.25
2023-10-15T09:26:51.429Z,99980.25
2023-10-15T09:27:03.579Z,99985.41
2023-10-15T09:27:15.670Z,99990.75
2023-10-15T09:27:27.644Z,99981.06
2023-10-15T09:27:46.958Z,99987.22
2023-10-15T09:28:02.205Z,99980.25
2023-10-15T09:28:14.507Z,99982.72
2023-10-15T09:28:26.658Z,99981.06
2023-10-15T09:28:38.850Z,99984.56
2023-10-15T09:28:50.698Z,99979.81
2023-10-15T09:29:02.860Z,99981.47
2023-10-15T09:29:21.206Z,99978.81
2023-10-15T09:29:33.430Z,99980.44
2023-10-15T09:29:45.590Z,99982.28
2023-10-15T09:30:06.761Z,99984.34
2023-10-15T09:30:22.382Z,99977.75
2023-10-15T09:30:34.235Z,99988.47
2023-10-15T09:30:46.197Z,99982.91
2023-10-15T09:31:04.808Z,99990.13
2023-10-15T09:31:16.820Z,99983.72
2023-10-15T09:31:28.775Z,99982.72
2023-10-15T09:31:40.838Z,99981.88
2023-10-15T09:31:52.797Z,99985.16
2023-10-15T09:32:05.481Z,99985.97
2023-10-15T09:32:17.432Z,99982.28
2023-10-15T09:32:32.644Z,99983.09
2023-10-15T09:32:44.769Z,99978.56
2023-10-15T09:32:57.039Z,99986.41
2023-10-15T09:33:09.002Z,99990.69
2023-10-15T09:33:28.502Z,99988.88
2023-10-15T09:33:41.208Z,99990.50
2023-10-15T09:33:53.053Z,99992.16
2023-10-15T09:34:05.345Z,99984.13
2023-10-15T09:34:17.689Z,99988.44
2023-10-15T09:34:30.276Z,99987.41
2023-10-15T09:34:42.325Z,99997.09
2023-10-15T09:34:54.533Z,99997.28
2023-10-15T09:35:06.735Z,99998.13
2023-10-15T09:35:18.982Z,100000.59
2023-10-15T09:35:31.170Z,100000.59
2023-10-15T09:35:43.008Z,100001.41
2023-10-15T09:35:54.874Z,100006.78
2023-10-15T09:36:07.256Z,100004.09
2023-10-15T09:36:21.209Z,100011.94
2023-10-15T09:36:36.255Z,100010.88
2023-10-15T09:36:48.043Z,100011.72
2023-10-15T09:37:00.294Z,100008.19
2023-10-15T09:37:12.269Z,100012.53
2023-10-15T09:37:26.178Z,100014.41
2023-10-15T09:37:38.229Z,100014.41
2023-10-15T09:37:50.668Z,100006.38
2023-10-15T09:38:04.553Z,100009.88
2023-10-15T09:38:16.618Z,100019.34
2023-10-15T09:38:28.610Z,100012.09
2023-10-15T09:38:40.548Z,100015.63
2023-10-15T09:38:52.465Z,100010.28
2023-10-15T09:39:05.733Z,100010.03
2023-10-15T09:39:17.709Z,100016.22
2023-10-15T09:39:30.117Z,100021.38
2023-10-15T09:39:42.041Z,100020.56
2023-10-15T09:39:54.051Z,100016.03
2023-10-15T09:40:07.315Z,100015.00
2023-10-15T09:40:19.560Z,100013.13
2023-10-15T09:40:31.498Z,100013.13
2023-10-15T09:40:43.822Z,100010.03
2023-10-15T09:40:55.888Z,100009.22
2023-10-15T09:41:08.120Z,100009.22
2023-10-15T09:41:20.501Z,100006.31
2023-10-15T09:41:32.524Z,100002.81
2023-10-15T09:41:45.632Z,100004.47
2023-10-15T09:41:58.199Z,100005.28
2023-10-15T09:42:10.276Z,100007.75
2023-10-15T09:42:22.857Z,100004.03
2023-10-15T09:42:39.446Z,100001.16
2023-10-15T09:42:52.352Z,100004.66
2023-10-15T09:43:04.674Z,99999.09
2023-10-15T09:43:17.466Z,100000.72
2023-10-15T09:43:30.499Z,99999.69
2023-10-15T09:43:44.489Z,100004.81
2023-10-15T09:43:58.087Z,99998.66
2023-10-15T09:44:10.928Z,100001.75
2023-10-15T09:44:24.027Z,99996.59
2023-10-15T09:44:36.540Z,99999.88
2023-10-15T09:44:49.353Z,99992.84
2023-10-15T09:45:06.030Z,99991.00
2023-10-15T09:45:18.090Z,99991.84
2023-10-15T09:45:30.308Z,99991.84
2023-10-15T09:45:43.143Z,99991.00
2023-10-15T09:45:55.654Z,99992.84
2023-10-15T09:46:08.605Z,99993.91
2023-10-15T09:46:22.038Z,99987.72
2023-10-15T09:46:34.129Z,99988.94
2023-10-15T09:46:46.586Z,99985.41
2023-10-15T09:46:59.084Z,99992.44
2023-10-15T09:47:11.653Z,99991.63
2023-10-15T09:47:23.915Z,99991.22
2023-10-15T09:47:36.804Z,99992.25
2023-10-15T09:47:50.252Z,99983.19
2023-10-15T09:48:03.374Z,99987.28
2023-10-15T09:48:15.853Z,99982.97
2023-10-15T09:48:28.420Z,99987.28
2023-10-15T09:48:42.237Z,99990.16
2023-10-15T09:48:54.685Z,99984.81
2023-10-15T09:49:07.006Z,99985.25
2023-10-15T09:49:19.960Z,99986.66
2023-10-15T09:49:32.508Z,99986.28
2023-10-15T09:49:45.354Z,99987.91
2023-10-15T09:49:58.542Z,99988.75
2023-10-15T09:50:11.511Z,99986.06
2023-10-15T09:50:23.451Z,99993.28
2023-10-15T09:50:37.579Z,99989.34
2023-10-15T09:50:50.852Z,99990.78
2023-10-15T09:51:03.054Z,99996.75
2023-10-15T09:51:15.265Z,99996.75
2023-10-15T09:51:28.035Z,99980.91
2023-10-15T09:51:41.202Z,99988.50
2023-10-15T09:51:53.352Z,99999.03
2023-10-15T09:52:07.147Z,100000.66
2023-10-15T09:52:19.669Z,99994.06
2023-10-15T09:52:32.125Z,99994.88
2023-10-15T09:52:46.398Z,99999.22
2023-10-15T09:52:59.764Z,99998.16
2023-10-15T09:53:14.454Z,100006.84
2023-10-15T09:53:27.451Z,100007.47
2023-10-15T09:53:40.727Z,100010.16
2023-10-15T09:53:54.732Z,100009.94
2023-10-15T09:54:07.992Z,100002.72
2023-10-15T09:54:21.358Z,100010.56
2023-10-15T09:54:34.147Z,100006.81
2023-10-15T09:54:49.724Z,100000.44
2023-10-15T09:55:03.181Z,100011.16
2023-10-15T09:55:15.491Z,100009.28
2023-10-15T09:55:29.648Z,100002.88
2023-10-15T09:55:42.304Z,100015.28
2023-10-15T09:55:55.354Z,100012.59
2023-10-15T09:56:09.915Z,100014.66
2023-10-15T09:56:23.920Z,100011.75
2023-10-15T09:56:38.634Z,100008.84
2023-10-15T09:56:51.372Z,100009.06
2023-10-15T09:57:03.736Z,100003.94
2023-10-15T09:57:18.153Z,100012.59
2023-10-15T09:57:31.048Z,100022.28
2023-10-15T09:57:43.659Z,100017.53
2023-10-15T09:57:56.961Z,100019.59
2023-10-15T09:58:10.988Z,100015.88
2023-10-15T09:58:22.908Z,100012.34
2023-10-15T09:58:34.836Z,100020.19
2023-10-15T09:58:46.923Z,100014.03
2023-10-15T09:58:59.142Z,100017.53
2023-10-15T09:59:11.161Z,100014.03
2023-10-15T09:59:23.182Z,100013.19
2023-10-15T09:59:34.967Z,100024.94